Time;durP1;ratioP1;P1;durP2;ratioP2;P2;SDS_P1;SDS_P2;PMS_P1;PMS_P2;Temp;Humidity;BMP_temperature;BMP_pressure;BME280_temperature;BME280_humidity;BME280_pressure;Samples;Min_cycle;Max_cycle;Signal;HPM_P1;HPM_P2
2022/01/14 00:02:16;;;;;;;0.10;0.10;;;-0.70;99.90;;;;;;5016492;28;20041;-67
2022/01/14 00:04:42;;;;;;;0.28;0.28;;;-0.60;99.90;;;;;;5033087;28;20037;-68
2022/01/14 00:07:08;;;;;;;0.60;0.60;;;-0.60;99.90;;;;;;5034246;28;20040;-68
2022/01/14 00:09:36;;;;;;;3.28;3.08;;;-0.70;99.90;;;;;;5032620;28;20029;-67
2022/01/14 00:12:09;;;;;;;6.43;1.27;;;-0.70;99.90;;;;;;5032709;28;20052;-67
2022/01/14 00:15:35;;;;;;;0.22;0.22;;;-0.60;99.90;;;;;;5049623;28;20506;-67
2022/01/14 00:17:30;;;;;;;0.20;0.20;;;-0.60;99.90;;;;;;5024369;28;20495;-67
2022/01/14 00:19:56;;;;;;;0.75;0.75;;;-0.80;99.90;;;;;;5033585;28;20071;-67
2022/01/14 00:22:24;;;;;;;1.42;0.98;;;-0.70;99.90;;;;;;5033750;28;20041;-68
2022/01/14 00:35:22;;;;;;;0.75;0.75;;;-0.80;99.90;;;;;;5033939;28;20052;-68
2022/01/14 00:37:47;;;;;;;0.73;0.73;;;-0.80;99.90;;;;;;5033755;28;20445;-68
2022/01/14 00:40:13;;;;;;;0.10;0.10;;;-0.80;99.90;;;;;;5033704;28;20096;-68
2022/01/14 00:42:39;;;;;;;2.05;1.33;;;-0.80;99.90;;;;;;5032064;28;20052;-68
2022/01/14 00:45:07;;;;;;;0.85;0.85;;;-0.80;99.90;;;;;;5033487;28;20113;-68
2022/01/14 00:47:37;;;;;;;0.93;0.93;;;-0.80;99.90;;;;;;5033192;28;20582;-68
2022/01/14 00:50:11;;;;;;;0.80;0.80;;;-0.80;99.90;;;;;;5032386;28;20041;-68
2022/01/14 00:52:39;;;;;;;3.72;0.70;;;-0.70;99.90;;;;;;5033447;28;20042;-68
2022/01/14 00:55:09;;;;;;;0.10;0.10;;;-0.70;99.90;;;;;;5032144;28;20120;-68
2022/01/14 01:00:29;;;;;;;0.10;0.10;;;-0.70;99.90;;;;;;5032466;28;20079;-68
2022/01/14 01:02:54;;;;;;;0.40;0.40;;;-0.70;99.90;;;;;;5033104;28;20040;-67
2022/01/14 01:05:22;;;;;;;1.70;1.60;;;-0.80;99.90;;;;;;5015386;28;20029;-68
2022/01/14 01:10:48;;;;;;;0.20;0.20;;;-1.10;99.90;;;;;;5023391;28;20489;-68
2022/01/14 01:13:29;;;;;;;0.10;0.10;;;-1.20;99.90;;;;;;5033035;28;20037;-68
2022/01/14 01:15:56;;;;;;;0.20;0.20;;;-1.20;99.90;;;;;;5031050;28;20037;-68
2022/01/14 01:18:22;;;;;;;1.90;1.13;;;-1.10;99.90;;;;;;5031583;28;20044;-68
2022/01/14 01:20:50;;;;;;;0.20;0.20;;;-1.10;99.90;;;;;;5032494;28;20033;-68
2022/01/14 01:23:16;;;;;;;0.10;0.10;;;-1.00;99.90;;;;;;5031622;28;20442;-68
2022/01/14 01:25:48;;;;;;;0.10;0.10;;;-0.90;99.90;;;;;;5014916;28;20026;-68
2022/01/14 01:28:13;;;;;;;0.10;0.10;;;-0.90;99.90;;;;;;5031403;28;20093;-68
2022/01/14 01:31:05;;;;;;;0.60;0.60;;;-0.90;99.90;;;;;;5032766;28;20529;-68
2022/01/14 01:33:32;;;;;;;0.80;0.80;;;-1.10;99.90;;;;;;5031469;28;20091;-68
2022/01/14 01:35:58;;;;;;;0.10;0.10;;;-1.10;99.90;;;;;;4998419;28;20041;-68
2022/01/14 01:38:24;;;;;;;0.10;0.10;;;-0.90;99.90;;;;;;5031301;28;20486;-68
2022/01/14 01:40:50;;;;;;;1.23;1.17;;;-1.00;99.90;;;;;;5032035;28;20036;-68
2022/01/14 01:43:20;;;;;;;1.85;1.75;;;-1.00;99.90;;;;;;5032663;28;20078;-68
2022/01/14 01:45:47;;;;;;;1.80;1.70;;;-1.10;99.90;;;;;;5031320;28;20445;-68
2022/01/14 01:48:13;;;;;;;0.45;0.45;;;-1.10;99.90;;;;;;5032160;28;20045;-68
2022/01/14 01:50:39;;;;;;;1.55;1.45;;;-1.00;99.90;;;;;;5032152;28;20040;-68
2022/01/14 01:53:05;;;;;;;0.63;0.63;;;-1.10;99.90;;;;;;5032158;28;20037;-68
2022/01/14 01:55:32;;;;;;;0.98;0.82;;;-1.00;99.90;;;;;;5030951;28;20025;-68
2022/01/14 01:57:59;;;;;;;0.22;0.22;;;-0.90;99.90;;;;;;5030713;28;20433;-68
2022/01/14 02:00:27;;;;;;;2.28;1.30;;;-0.90;99.90;;;;;;5031142;28;20029;-68
2022/01/14 02:02:56;;;;;;;0.40;0.40;;;-0.90;99.90;;;;;;5030621;28;20559;-68
2022/01/14 02:05:22;;;;;;;2.42;0.85;;;-1.00;99.90;;;;;;5030815;28;20045;-68
2022/01/14 02:07:48;;;;;;;0.82;0.82;;;-0.90;99.90;;;;;;5031792;28;20033;-68
2022/01/14 02:10:14;;;;;;;0.35;0.35;;;-0.90;99.90;;;;;;5030626;28;20490;-68
2022/01/14 02:12:49;;;;;;;0.20;0.20;;;-0.90;99.90;;;;;;5031267;28;20029;-68
2022/01/14 02:23:25;;;;;;;0.40;0.40;;;-0.90;99.90;;;;;;5031785;28;20092;-67
2022/01/14 02:25:51;;;;;;;1.38;1.35;;;-0.80;99.90;;;;;;5030373;28;20037;-67
2022/01/14 02:28:18;;;;;;;0.63;0.63;;;-0.90;99.90;;;;;;5030585;28;20033;-67
2022/01/14 02:30:47;;;;;;;0.43;0.43;;;-0.90;99.90;;;;;;5032001;28;20055;-67
2022/01/14 02:33:15;;;;;;;4.70;1.85;;;-0.90;99.90;;;;;;5031795;28;20378;-67
2022/01/14 02:35:46;;;;;;;0.00;0.00;;;-0.80;99.90;;;;;;5030429;28;20029;-68
2022/01/14 02:38:14;;;;;;;0.55;0.55;;;-0.80;99.90;;;;;;5031600;28;20033;-67
2022/01/14 02:40:41;;;;;;;5.65;1.70;;;-0.80;99.90;;;;;;5031673;28;20116;-67
2022/01/14 02:43:12;;;;;;;1.10;0.90;;;-0.80;99.90;;;;;;5031184;28;20034;-67
2022/01/14 02:45:39;;;;;;;;;;;-0.80;99.90;;;;;;5032076;28;20033;-67
2022/01/14 02:48:05;;;;;;;0.82;0.82;;;-0.80;99.90;;;;;;5031255;28;20452;-67
2022/01/14 02:50:39;;;;;;;0.20;0.20;;;-0.80;99.90;;;;;;5030098;28;20518;-68
2022/01/14 02:55:49;;;;;;;0.95;0.95;;;-0.80;99.90;;;;;;5031323;28;20034;-67
2022/01/14 02:58:16;;;;;;;0.10;0.10;;;-0.80;99.90;;;;;;5031360;28;20044;-67
2022/01/14 03:00:42;;;;;;;0.20;0.20;;;-0.80;99.90;;;;;;5030100;28;20056;-67
2022/01/14 03:03:09;;;;;;;6.60;2.78;;;-0.80;99.90;;;;;;5013770;28;20478;-67
2022/01/14 03:05:35;;;;;;;1.65;1.27;;;-0.90;99.90;;;;;;5030018;28;20804;-68
2022/01/14 03:08:01;;;;;;;0.75;0.75;;;-1.00;99.90;;;;;;5031402;28;20129;-68
2022/01/14 03:10:27;;;;;;;3.17;2.97;;;-1.00;99.90;;;;;;5029924;28;20025;-67
2022/01/14 03:12:53;;;;;;;0.10;0.10;;;-1.00;99.90;;;;;;5030139;28;20304;-68
2022/01/14 03:15:19;;;;;;;0.20;0.20;;;-1.00;99.90;;;;;;5030350;28;20040;-67
2022/01/14 03:17:46;;;;;;;0.35;0.35;;;-1.00;99.90;;;;;;5031567;28;20034;-67
2022/01/14 03:20:33;;;;;;;2.22;2.08;;;-0.90;99.90;;;;;;5029891;28;20095;-67
2022/01/14 03:23:05;;;;;;;4.28;3.10;;;-1.10;99.90;;;;;;5029861;28;20052;-67
2022/01/14 03:25:48;;;;;;;2.63;2.45;;;-1.10;99.90;;;;;;5031212;28;20116;-68
2022/01/14 03:28:16;;;;;;;0.60;0.60;;;-1.00;99.90;;;;;;5031067;28;20091;-67
2022/01/14 03:30:42;;;;;;;3.42;1.27;;;-1.10;99.90;;;;;;5031378;28;20030;-68
2022/01/14 03:33:09;;;;;;;0.22;0.22;;;-1.00;99.90;;;;;;5031217;28;20637;-67
2022/01/14 03:35:34;;;;;;;5.88;0.77;;;-1.10;99.90;;;;;;5031193;28;20056;-67
2022/01/14 03:38:00;;;;;;;0.73;0.73;;;-1.30;99.90;;;;;;5032858;28;20478;-67
2022/01/14 03:40:26;;;;;;;0.55;0.55;;;-1.40;99.90;;;;;;5033781;28;20041;-69
2022/01/14 03:42:55;;;;;;;0.85;0.73;;;-1.40;99.90;;;;;;5049717;28;20490;-67
2022/01/14 03:45:20;;;;;;;1.42;1.33;;;-1.40;99.90;;;;;;5034586;28;20030;-67
2022/01/14 03:47:46;;;;;;;0.28;0.28;;;-1.30;99.90;;;;;;5033383;28;21105;-67
2022/01/14 03:50:12;;;;;;;6.07;1.80;;;-1.30;99.90;;;;;;5034497;28;20060;-68
2022/01/14 03:52:38;;;;;;;0.20;0.20;;;-1.30;99.90;;;;;;5034337;28;20030;-67
2022/01/14 03:55:04;;;;;;;5.45;3.63;;;-1.40;99.90;;;;;;5034359;28;20127;-67
2022/01/14 03:57:30;;;;;;;0.30;0.30;;;-1.30;99.90;;;;;;5034291;28;20026;-67
2022/01/14 03:59:56;;;;;;;1.23;1.23;;;-1.20;99.90;;;;;;5016562;28;20083;-69
2022/01/14 04:02:21;;;;;;;0.90;0.90;;;-1.10;99.90;;;;;;5034179;28;20041;-69
2022/01/14 04:04:47;;;;;;;1.58;1.50;;;-1.00;99.90;;;;;;5033893;28;20041;-68
2022/01/14 04:07:13;;;;;;;0.30;0.30;;;-1.00;99.90;;;;;;5034209;28;20148;-67
2022/01/14 04:09:40;;;;;;;1.00;1.00;;;-1.10;99.90;;;;;;5033922;28;20040;-67
2022/01/14 04:12:15;;;;;;;0.13;0.13;;;-1.10;99.90;;;;;;5033045;28;20037;-67
2022/01/14 04:17:10;;;;;;;1.17;1.10;;;-1.00;99.90;;;;;;5033935;28;20508;-67
2022/01/14 04:19:35;;;;;;;0.35;0.35;;;-1.00;99.90;;;;;;5032294;28;20116;-67
2022/01/14 04:22:02;;;;;;;0.63;0.63;;;-1.10;99.90;;;;;;5033963;28;20034;-68
2022/01/14 04:24:27;;;;;;;0.32;0.32;;;-1.10;99.90;;;;;;5033804;28;20172;-68
2022/01/14 04:26:53;;;;;;;0.55;0.55;;;-1.10;99.90;;;;;;5033927;28;20132;-68
2022/01/14 04:29:19;;;;;;;1.00;1.00;;;-1.10;99.90;;;;;;5033620;28;20112;-68
2022/01/14 04:31:44;;;;;;;0.70;0.70;;;-1.10;99.90;;;;;;5032306;28;20044;-68
2022/01/14 04:34:10;;;;;;;0.20;0.20;;;-1.00;99.90;;;;;;5033493;28;20030;-68
2022/01/14 04:36:36;;;;;;;0.10;0.10;;;-1.10;99.90;;;;;;5033554;28;20037;-68
2022/01/14 04:39:03;;;;;;;0.55;0.55;;;-1.20;99.90;;;;;;5033255;28;20544;-66
2022/01/14 04:41:29;;;;;;;0.10;0.10;;;-1.30;99.90;;;;;;5033259;28;20151;-66
2022/01/14 04:43:55;;;;;;;0.10;0.10;;;-1.20;99.90;;;;;;5033298;28;20500;-67
2022/01/14 04:48:53;;;;;;;0.85;0.52;;;-1.20;99.90;;;;;;5030818;28;20048;-67
2022/01/14 04:51:21;;;;;;;3.95;1.65;;;-1.30;99.90;;;;;;5029202;28;20033;-67
2022/01/14 04:53:48;;;;;;;0.70;0.70;;;-1.30;99.90;;;;;;5022023;28;20029;-67
2022/01/14 04:56:14;;;;;;;0.10;0.10;;;-1.30;99.90;;;;;;5013259;28;20494;-67
2022/01/14 04:58:40;;;;;;;1.15;1.02;;;-1.30;99.90;;;;;;5014529;28;20022;-67
2022/01/14 05:01:06;;;;;;;0.30;0.30;;;-1.30;99.90;;;;;;5013320;28;20092;-68
2022/01/14 05:03:35;;;;;;;0.20;0.20;;;-1.20;99.90;;;;;;5033005;28;20041;-67
2022/01/14 05:06:02;;;;;;;0.65;0.65;;;-1.30;99.90;;;;;;5032521;28;20030;-68
2022/01/14 05:08:39;;;;;;;0.15;0.15;;;-1.20;99.90;;;;;;5032794;28;20053;-68
2022/01/14 05:11:23;;;;;;;0.88;0.88;;;-1.20;99.90;;;;;;5033094;28;20111;-62
2022/01/14 05:13:52;;;;;;;0.30;0.30;;;-1.30;99.90;;;;;;5017492;28;20053;-66
2022/01/14 05:16:18;;;;;;;0.10;0.10;;;-1.30;99.90;;;;;;5033076;28;20121;-67
2022/01/14 05:18:43;;;;;;;0.45;0.45;;;-1.30;99.90;;;;;;5032874;28;20112;-66
2022/01/14 05:21:10;;;;;;;2.05;1.95;;;-1.30;99.90;;;;;;5030417;28;20397;-67
2022/01/14 05:23:36;;;;;;;0.28;0.28;;;-1.20;99.90;;;;;;5012892;28;20430;-67
2022/01/14 05:26:02;;;;;;;0.63;0.60;;;-0.80;99.90;;;;;;5012795;28;20093;-66
2022/01/14 05:28:28;;;;;;;0.10;0.10;;;-0.60;99.90;;;;;;5012727;28;20037;-66
2022/01/14 05:30:54;;;;;;;1.08;0.93;;;-0.70;99.90;;;;;;5012791;28;20490;-67
2022/01/14 05:33:19;;;;;;;0.30;0.30;;;-1.10;99.90;;;;;;5012706;28;20026;-67
2022/01/14 05:35:45;;;;;;;0.30;0.30;;;-1.10;99.90;;;;;;5012444;28;20117;-65
2022/01/14 05:38:11;;;;;;;1.20;1.10;;;-1.30;99.90;;;;;;5012472;28;20117;-67
2022/01/14 05:40:37;;;;;;;2.35;2.17;;;-1.30;99.90;;;;;;5011649;28;20096;-68
2022/01/14 05:43:03;;;;;;;8.77;4.57;;;-1.40;99.90;;;;;;5012271;28;20037;-67
2022/01/14 05:45:28;;;;;;;0.63;0.63;;;-1.30;99.90;;;;;;5012534;28;20108;-67
2022/01/14 05:47:55;;;;;;;0.17;0.17;;;-1.40;99.90;;;;;;4994412;28;20069;-67
2022/01/14 05:50:24;;;;;;;6.13;0.95;;;-1.40;99.90;;;;;;5012316;28;20443;-67
2022/01/14 05:52:51;;;;;;;0.45;0.30;;;-1.40;99.90;;;;;;5023174;28;20034;-66
2022/01/14 05:55:20;;;;;;;0.10;0.10;;;-1.40;99.90;;;;;;5012166;28;20113;-67
2022/01/14 05:57:46;;;;;;;1.88;0.77;;;-1.50;99.90;;;;;;5012518;28;20042;-66
2022/01/14 06:00:17;;;;;;;1.23;1.17;;;-1.50;99.90;;;;;;5010926;28;20034;-67
2022/01/14 06:02:45;;;;;;;0.30;0.30;;;-1.50;99.90;;;;;;5010914;28;20506;-66
2022/01/14 06:05:11;;;;;;;0.20;0.20;;;-1.50;99.90;;;;;;5010876;28;20407;-69
2022/01/14 06:07:37;;;;;;;1.42;1.42;;;-1.50;99.90;;;;;;5010777;28;20036;-69
2022/01/14 06:10:04;;;;;;;8.77;3.95;;;-1.40;99.90;;;;;;4994345;28;20088;-70
2022/01/14 06:12:30;;;;;;;0.22;0.22;;;-1.40;99.90;;;;;;5010853;28;20100;-70
2022/01/14 06:14:56;;;;;;;0.10;0.10;;;-1.40;99.90;;;;;;5010768;28;20123;-70
2022/01/14 06:17:22;;;;;;;0.20;0.20;;;-1.40;99.90;;;;;;5010881;28;20502;-69
2022/01/14 06:19:48;;;;;;;0.40;0.40;;;-1.40;99.90;;;;;;5010408;28;20065;-70
2022/01/14 06:22:14;;;;;;;3.75;3.40;;;-1.40;99.90;;;;;;5017734;28;20081;-69
2022/01/14 06:24:40;;;;;;;9.95;1.35;;;-1.40;99.90;;;;;;4993910;28;20490;-69
2022/01/14 06:27:06;;;;;;;1.60;1.50;;;-1.40;99.90;;;;;;5010994;28;20116;-69
2022/01/14 06:29:31;;;;;;;3.17;0.95;;;-1.50;99.90;;;;;;5011608;28;20077;-70
2022/01/14 06:31:57;;;;;;;1.67;1.35;;;-1.50;99.90;;;;;;5011833;28;20065;-71
2022/01/14 06:34:23;;;;;;;1.30;1.20;;;-1.50;99.90;;;;;;5010853;28;20041;-70
2022/01/14 06:36:49;;;;;;;0.45;0.43;;;-1.50;99.90;;;;;;5011773;28;20030;-70
2022/01/14 06:39:15;;;;;;;1.80;1.70;;;-1.50;99.90;;;;;;5010618;28;20040;-69
2022/01/14 06:41:40;;;;;;;0.35;0.35;;;-1.50;99.90;;;;;;5026169;28;20044;-68
2022/01/14 06:44:07;;;;;;;0.93;0.93;;;-1.40;99.90;;;;;;5030904;28;20033;-68
2022/01/14 06:46:33;;;;;;;0.40;0.40;;;-1.40;99.90;;;;;;5030150;28;20029;-68
2022/01/14 06:48:59;;;;;;;0.35;0.35;;;-1.40;99.90;;;;;;5031061;28;20107;-68
2022/01/14 06:51:25;;;;;;;0.17;0.17;;;-1.40;99.90;;;;;;5031435;28;20254;-68
2022/01/14 06:53:51;;;;;;;0.57;0.57;;;-1.40;99.90;;;;;;5030399;28;20026;-68
2022/01/14 06:56:17;;;;;;;0.45;0.45;;;-1.40;99.90;;;;;;5031222;28;20508;-69
2022/01/14 06:58:44;;;;;;;0.90;0.90;;;-1.40;99.90;;;;;;5030281;28;20025;-69
2022/01/14 07:01:10;;;;;;;5.95;2.65;;;-1.40;99.90;;;;;;5026434;28;20541;-69
2022/01/14 07:03:36;;;;;;;1.70;1.40;;;-1.40;99.90;;;;;;5013644;28;20037;-68
2022/01/14 07:06:02;;;;;;;0.20;0.20;;;-1.40;99.90;;;;;;5011163;28;20030;-68
2022/01/14 07:08:31;;;;;;;1.40;1.40;;;-1.40;99.90;;;;;;5010453;28;20092;-69
2022/01/14 07:11:05;;;;;;;1.17;1.17;;;-1.40;99.90;;;;;;5011362;28;20029;-69
2022/01/14 07:13:30;;;;;;;0.20;0.20;;;-1.40;99.90;;;;;;5013191;28;20080;-69
2022/01/14 07:15:56;;;;;;;0.38;0.38;;;-1.50;99.90;;;;;;5014007;28;20033;-69
2022/01/14 07:18:22;;;;;;;1.88;0.90;;;-1.50;99.90;;;;;;5014880;28;20036;-69
2022/01/14 07:20:47;;;;;;;0.52;0.52;;;-1.50;99.90;;;;;;5015191;28;20033;-68
2022/01/14 07:23:13;;;;;;;0.10;0.10;;;-1.50;99.90;;;;;;5030130;28;20049;-68
2022/01/14 07:25:39;;;;;;;1.90;1.80;;;-1.50;99.90;;;;;;5014918;28;20141;-68
2022/01/14 07:28:05;;;;;;;0.15;0.15;;;-1.50;99.90;;;;;;5014892;28;20113;-68
2022/01/14 07:30:31;;;;;;;0.15;0.15;;;-1.50;99.90;;;;;;5014136;28;20121;-68
2022/01/14 07:32:58;;;;;;;3.80;1.35;;;-1.50;99.90;;;;;;5015249;28;20445;-68
2022/01/14 07:35:24;;;;;;;9.80;2.58;;;-1.50;99.90;;;;;;5015111;28;20100;-70
2022/01/14 07:37:50;;;;;;;0.40;0.40;;;-1.50;99.90;;;;;;5014836;28;20030;-70
2022/01/14 07:40:15;;;;;;;0.50;0.50;;;-1.60;99.90;;;;;;5014937;28;20045;-71
2022/01/14 07:42:41;;;;;;;0.10;0.10;;;-1.60;99.90;;;;;;5013807;28;20553;-70
2022/01/14 07:45:08;;;;;;;0.10;0.10;;;-1.50;99.90;;;;;;5014962;28;20030;-68
2022/01/14 07:47:33;;;;;;;0.30;0.30;;;-1.60;99.90;;;;;;5014783;28;20568;-70
2022/01/14 07:49:59;;;;;;;4.82;2.75;;;-1.60;99.90;;;;;;5014434;28;20037;-69
2022/01/14 07:52:25;;;;;;;0.10;0.10;;;-1.70;99.90;;;;;;5013440;28;20041;-71
2022/01/14 07:54:51;;;;;;;0.22;0.22;;;-1.70;99.90;;;;;;5014477;28;20467;-71
2022/01/14 07:57:18;;;;;;;0.50;0.50;;;-1.70;99.90;;;;;;5014581;28;20113;-71
2022/01/14 07:59:44;;;;;;;0.20;0.20;;;-1.60;99.90;;;;;;5014686;28;20045;-70
2022/01/14 08:02:12;;;;;;;1.42;1.10;;;-1.60;99.90;;;;;;5014100;28;20045;-70
2022/01/14 08:04:38;;;;;;;4.32;2.80;;;-1.70;99.90;;;;;;5014619;28;20561;-70
2022/01/14 08:07:11;;;;;;;0.85;0.85;;;-1.70;99.90;;;;;;5013821;28;20122;-70
2022/01/14 08:09:40;;;;;;;0.10;0.10;;;-1.80;99.90;;;;;;5014399;28;20050;-68
2022/01/14 08:12:08;;;;;;;1.45;1.35;;;-1.70;99.90;;;;;;5012901;28;20451;-69
2022/01/14 08:14:35;;;;;;;0.10;0.10;;;-1.70;99.90;;;;;;5013188;28;20030;-70
2022/01/14 08:17:01;;;;;;;0.20;0.20;;;-1.70;99.90;;;;;;5013205;28;20113;-70
2022/01/14 08:19:32;;;;;;;0.20;0.20;;;-1.60;99.90;;;;;;5013063;28;20033;-70
2022/01/14 08:22:03;;;;;;;0.60;0.60;;;-1.70;99.90;;;;;;5013749;28;20108;-70
2022/01/14 08:24:30;;;;;;;0.20;0.20;;;-1.70;99.90;;;;;;5014193;28;20034;-70
2022/01/14 08:26:57;;;;;;;1.58;1.48;;;-1.60;99.90;;;;;;5013076;28;20061;-70
2022/01/14 08:29:23;;;;;;;0.70;0.70;;;-1.70;99.90;;;;;;5013714;28;20450;-69
2022/01/14 08:31:49;;;;;;;2.33;1.42;;;-1.70;99.90;;;;;;5013759;28;20034;-70
2022/01/14 08:34:15;;;;;;;2.30;0.90;;;-1.80;99.90;;;;;;5013837;28;20056;-69
2022/01/14 08:36:41;;;;;;;0.30;0.30;;;-1.70;99.90;;;;;;4996149;28;20038;-69
2022/01/14 08:39:07;;;;;;;0.20;0.20;;;-1.80;99.90;;;;;;5013771;28;20490;-70
2022/01/14 08:41:33;;;;;;;0.40;0.40;;;-1.80;99.90;;;;;;5013900;28;20084;-69
2022/01/14 08:44:00;;;;;;;0.10;0.10;;;-1.80;99.90;;;;;;5013746;28;20044;-70
2022/01/14 08:46:27;;;;;;;5.07;3.30;;;-1.90;99.90;;;;;;5012274;28;20038;-70
2022/01/14 08:48:54;;;;;;;4.57;2.05;;;-1.80;99.90;;;;;;5013468;28;20053;-69
2022/01/14 08:51:21;;;;;;;1.20;1.10;;;-1.80;99.90;;;;;;5013302;28;20045;-69
2022/01/14 08:53:47;;;;;;;1.30;1.25;;;-1.80;99.90;;;;;;5016237;28;20076;-68
2022/01/14 08:56:13;;;;;;;0.28;0.28;;;-1.90;99.90;;;;;;5033481;28;20401;-70
2022/01/14 08:58:39;;;;;;;1.02;0.98;;;-1.70;99.90;;;;;;5030207;28;20026;-70
2022/01/14 09:01:08;;;;;;;0.65;0.65;;;-1.80;99.90;;;;;;5011773;28;20399;-69
2022/01/14 09:03:33;;;;;;;0.40;0.40;;;-1.70;99.90;;;;;;5013127;28;20029;-69
2022/01/14 09:05:59;;;;;;;1.20;1.20;;;-1.60;99.90;;;;;;5013466;28;20022;-69
2022/01/14 09:08:25;;;;;;;10.05;2.70;;;-1.70;99.90;;;;;;5011941;28;20084;-70
2022/01/14 09:10:51;;;;;;;0.90;0.80;;;-1.70;99.90;;;;;;5013452;28;20036;-70
2022/01/14 09:13:17;;;;;;;0.10;0.10;;;-1.60;99.90;;;;;;5012067;28;20594;-70
2022/01/14 09:15:45;;;;;;;1.00;1.00;;;-1.50;99.90;;;;;;5013225;28;20038;-70
2022/01/14 09:18:10;;;;;;;0.52;0.52;;;-1.50;99.90;;;;;;5012186;28;20034;-69
2022/01/14 09:20:36;;;;;;;0.95;0.95;;;-1.60;99.90;;;;;;5012049;28;20029;-70
2022/01/14 09:23:03;;;;;;;1.23;1.13;;;-1.50;99.90;;;;;;5010893;28;20153;-70
2022/01/14 09:25:29;;;;;;;0.10;0.10;;;-1.50;99.90;;;;;;5010151;28;20029;-69
2022/01/14 09:27:56;;;;;;;0.17;0.17;;;-1.60;99.90;;;;;;5010764;28;20030;-69
2022/01/14 09:30:23;;;;;;;3.30;2.22;;;-1.60;99.90;;;;;;5012440;28;20116;-70
2022/01/14 09:32:50;;;;;;;0.63;0.63;;;-1.50;99.90;;;;;;5011523;28;20080;-70
2022/01/14 09:35:17;;;;;;;1.35;1.33;;;-1.40;99.90;;;;;;5011779;28;20022;-70
2022/01/14 09:37:47;;;;;;;3.67;2.28;;;-1.40;99.90;;;;;;5011395;28;20049;-69
2022/01/14 09:40:16;;;;;;;0.88;0.88;;;-1.30;99.90;;;;;;5011239;28;20391;-70
2022/01/14 09:42:50;;;;;;;0.40;0.40;;;-1.20;99.90;;;;;;5012800;28;20040;-70
2022/01/14 09:45:21;;;;;;;2.40;2.30;;;-1.30;99.90;;;;;;5012467;28;20034;-69
2022/01/14 09:47:50;;;;;;;0.85;0.85;;;-1.40;99.90;;;;;;5011414;28;20084;-69
2022/01/14 09:50:19;;;;;;;0.52;0.52;;;-1.50;99.90;;;;;;5012497;28;20474;-69
2022/01/14 09:52:49;;;;;;;0.80;0.80;;;-1.50;99.90;;;;;;5012014;28;20380;-69
2022/01/14 09:55:16;;;;;;;0.10;0.10;;;-1.40;99.90;;;;;;5011259;28;20479;-70
2022/01/14 09:57:42;;;;;;;1.55;1.45;;;-1.30;99.90;;;;;;5010837;28;20045;-69
2022/01/14 10:00:09;;;;;;;3.80;3.50;;;-1.30;99.90;;;;;;5011949;28;20121;-70
2022/01/14 10:02:41;;;;;;;2.97;2.47;;;-1.40;99.90;;;;;;5012356;28;20488;-70
2022/01/14 10:05:37;;;;;;;0.20;0.20;;;-1.30;99.90;;;;;;5012293;28;20033;-69
2022/01/14 10:08:14;;;;;;;1.90;1.80;;;-1.40;99.90;;;;;;4995504;28;20029;-69
2022/01/14 10:10:50;;;;;;;4.15;2.08;;;-1.40;99.90;;;;;;5012424;28;20037;-70
2022/01/14 10:13:21;;;;;;;2.00;1.00;;;-1.30;99.90;;;;;;5010604;28;20461;-70
2022/01/14 10:15:52;;;;;;;1.95;1.85;;;-1.30;99.90;;;;;;5010999;28;20026;-70
2022/01/14 10:18:22;;;;;;;0.10;0.10;;;-1.20;99.90;;;;;;5012044;28;20034;-69
2022/01/14 10:20:49;;;;;;;1.25;1.17;;;-1.10;99.90;;;;;;5010925;28;20053;-69
2022/01/14 10:23:15;;;;;;;0.82;0.82;;;-1.10;99.90;;;;;;5010390;28;20034;-70
2022/01/14 10:25:55;;;;;;;1.65;1.48;;;-1.10;99.90;;;;;;5010715;28;20037;-69
2022/01/14 10:28:21;;;;;;;0.22;0.22;;;-0.90;99.90;;;;;;4995969;28;20376;-69
2022/01/14 10:30:49;;;;;;;18.63;3.30;;;-1.00;99.90;;;;;;5010974;28;20033;-70
2022/01/14 10:33:28;;;;;;;1.05;1.02;;;-1.00;99.90;;;;;;5011691;28;20073;-69
2022/01/14 10:35:54;;;;;;;0.63;0.63;;;-1.00;99.90;;;;;;5010664;28;20037;-69
2022/01/14 10:38:23;;;;;;;0.38;0.38;;;-1.00;99.90;;;;;;5010288;28;20062;-69
2022/01/14 10:40:53;;;;;;;0.63;0.63;;;-0.90;99.90;;;;;;5010582;28;20033;-69
2022/01/14 10:43:22;;;;;;;0.20;0.20;;;-0.90;99.90;;;;;;5011895;28;20045;-69
2022/01/14 10:45:50;;;;;;;1.75;1.65;;;-0.90;99.90;;;;;;5011941;28;20049;-69
2022/01/14 10:48:39;;;;;;;0.63;0.63;;;-0.90;99.90;;;;;;5013683;28;20053;-70
2022/01/14 10:51:16;;;;;;;1.48;1.40;;;-1.00;99.90;;;;;;5015746;28;20033;-69
2022/01/14 10:54:00;;;;;;;0.85;0.85;;;-1.00;99.90;;;;;;5014871;28;20034;-69
2022/01/14 10:56:27;;;;;;;6.75;3.97;;;-0.90;99.90;;;;;;5021299;28;20029;-69
2022/01/14 10:58:59;;;;;;;1.25;1.25;;;-0.80;99.90;;;;;;5031464;28;20485;-69
2022/01/14 11:01:26;;;;;;;4.13;3.60;;;-0.70;99.90;;;;;;5018164;28;20037;-69
2022/01/14 11:04:11;;;;;;;1.45;1.35;;;-0.60;99.90;;;;;;5035637;28;20049;-70
2022/01/14 11:06:41;;;;;;;0.50;0.50;;;-0.70;99.90;;;;;;5034132;28;20433;-70
2022/01/14 11:09:13;;;;;;;0.60;0.60;;;-0.60;99.90;;;;;;5035211;28;20041;-69
2022/01/14 11:11:41;;;;;;;3.50;3.22;;;-0.70;99.90;;;;;;5035148;28;20040;-69
2022/01/14 11:14:08;;;;;;;0.10;0.10;;;-0.70;99.90;;;;;;5035038;28;20030;-69
2022/01/14 11:16:35;;;;;;;0.63;0.63;;;-0.60;99.90;;;;;;5033524;28;20110;-70
2022/01/14 11:19:04;;;;;;;7.03;2.92;;;-0.60;99.90;;;;;;5033893;28;20132;-70
2022/01/14 11:24:23;;;;;;;2.25;2.08;;;-0.50;99.90;;;;;;5034795;28;20080;-70
2022/01/14 11:26:55;;;;;;;0.50;0.50;;;-0.50;99.90;;;;;;5033886;28;20025;-68
2022/01/14 11:29:22;;;;;;;0.38;0.38;;;-0.50;99.90;;;;;;5034458;28;20076;-69
2022/01/14 11:31:58;;;;;;;1.20;0.95;;;-0.30;99.90;;;;;;5033926;28;20041;-69
2022/01/14 11:34:37;;;;;;;1.17;1.08;;;-0.30;99.90;;;;;;5033436;28;20083;-69
2022/01/14 11:37:06;;;;;;;13.80;2.67;;;-0.20;99.90;;;;;;5033910;28;20116;-69
2022/01/14 11:39:36;;;;;;;14.07;2.28;;;-0.30;99.90;;;;;;5016068;28;20026;-69
2022/01/14 11:42:08;;;;;;;0.32;0.32;;;-0.40;99.90;;;;;;5032708;28;20041;-68
2022/01/14 11:47:43;;;;;;;2.13;1.92;;;-0.30;99.90;;;;;;5034262;28;20037;-69
2022/01/14 11:50:23;;;;;;;1.20;1.15;;;-0.30;99.90;;;;;;5034158;28;20073;-68
2022/01/14 11:52:51;;;;;;;2.17;2.08;;;-0.20;99.90;;;;;;5033338;28;20037;-68
2022/01/14 11:55:22;;;;;;;0.45;0.45;;;-0.10;99.90;;;;;;5034152;28;20034;-77
2022/01/14 11:58:10;;;;;;;2.10;2.00;;;-0.10;99.90;;;;;;5033677;28;20041;-69
2022/01/14 12:00:40;;;;;;;2.33;2.22;;;0.00;99.90;;;;;;5032945;28;20044;-69
2022/01/14 12:03:13;;;;;;;0.20;0.20;;;0.00;99.90;;;;;;5033260;28;20117;-68
2022/01/14 12:06:08;;;;;;;0.90;0.88;;;0.00;99.90;;;;;;5034084;28;20034;-69
2022/01/14 12:08:35;;;;;;;8.23;2.75;;;0.00;99.90;;;;;;5016760;28;20030;-69
2022/01/14 12:11:20;;;;;;;3.75;2.70;;;0.00;99.90;;;;;;5016813;28;20041;-68
2022/01/14 12:14:01;;;;;;;3.92;3.22;;;0.10;99.90;;;;;;5032889;28;20044;-68
2022/01/14 12:16:59;;;;;;;3.25;3.00;;;0.10;99.90;;;;;;5034055;28;20048;-69
2022/01/14 12:19:28;;;;;;;1.13;1.10;;;0.00;99.90;;;;;;5033996;28;20045;-68
2022/01/14 12:21:55;;;;;;;0.88;0.88;;;0.20;99.90;;;;;;5032428;28;20087;-68
2022/01/14 12:24:21;;;;;;;7.68;2.45;;;0.30;99.90;;;;;;5033530;28;20045;-68
2022/01/14 12:26:52;;;;;;;2.17;2.08;;;0.30;99.90;;;;;;5033833;28;20390;-68
2022/01/14 12:29:30;;;;;;;1.23;1.17;;;0.20;99.90;;;;;;5033722;28;20037;-69
2022/01/14 12:32:04;;;;;;;5.45;1.27;;;0.30;99.90;;;;;;5033917;28;20117;-69
2022/01/14 12:34:36;;;;;;;6.50;4.25;;;0.40;99.90;;;;;;5033709;28;20029;-69
2022/01/14 12:37:03;;;;;;;0.95;0.95;;;0.40;99.90;;;;;;5033681;28;20057;-68
2022/01/14 12:39:30;;;;;;;1.33;1.23;;;0.40;99.90;;;;;;5031748;28;20418;-68
2022/01/14 12:41:59;;;;;;;5.22;3.65;;;0.40;99.90;;;;;;5033570;28;20072;-68
2022/01/14 12:44:25;;;;;;;5.10;4.05;;;0.50;99.90;;;;;;5032081;28;20030;-68
2022/01/14 12:47:08;;;;;;;1.38;1.27;;;0.50;99.90;;;;;;5033403;28;20045;-68
2022/01/14 12:49:38;;;;;;;0.45;0.45;;;0.60;99.90;;;;;;5015423;28;20049;-69
2022/01/14 12:52:11;;;;;;;2.63;2.17;;;0.60;99.90;;;;;;5031894;28;20108;-69
2022/01/14 12:54:43;;;;;;;3.05;2.85;;;0.60;99.90;;;;;;5031642;28;20657;-69
2022/01/14 12:57:17;;;;;;;1.52;1.45;;;0.70;99.90;;;;;;5012421;28;20026;-68
2022/01/14 12:59:47;;;;;;;4.15;2.00;;;0.80;99.90;;;;;;5013189;28;20034;-68
2022/01/14 13:02:23;;;;;;;3.20;2.92;;;0.80;99.90;;;;;;5012306;28;20038;-68
2022/01/14 13:05:08;;;;;;;4.43;2.92;;;0.70;99.90;;;;;;5013353;28;20030;-68
2022/01/14 13:07:36;;;;;;;3.40;1.63;;;0.70;99.90;;;;;;5012072;28;20030;-68
2022/01/14 13:10:04;;;;;;;5.13;3.92;;;0.70;99.90;;;;;;5012002;28;20383;-71
2022/01/14 13:12:35;;;;;;;9.18;5.97;;;0.70;99.90;;;;;;5012681;28;20030;-69
2022/01/14 13:15:04;;;;;;;;;;;0.70;99.90;;;;;;5012230;28;20502;-68
2022/01/14 13:17:53;;;;;;;0.75;0.75;;;0.60;99.90;;;;;;5011369;28;19999;-68
2022/01/14 13:20:20;;;;;;;1.13;1.08;;;0.70;99.90;;;;;;5018519;28;20139;-68
2022/01/14 13:22:49;;;;;;;2.50;2.25;;;0.80;99.90;;;;;;5013360;28;20040;-68
2022/01/14 13:25:33;;;;;;;1.05;1.05;;;0.70;99.90;;;;;;5029362;28;20022;-69
2022/01/14 13:28:02;;;;;;;6.07;3.95;;;0.70;99.90;;;;;;5029239;28;20026;-68
2022/01/14 13:30:39;;;;;;;16.45;3.65;;;0.70;99.90;;;;;;5030317;28;20034;-67
2022/01/14 13:33:10;;;;;;;0.73;0.73;;;0.70;99.90;;;;;;5013324;28;20025;-67
2022/01/14 13:35:38;;;;;;;4.22;3.70;;;0.80;99.90;;;;;;5029753;28;20063;-68